createdAt,value
2019-02-16T00:02:32.760Z,-1.3
2019-02-16T00:07:32.943Z,-1.3
2019-02-16T00:12:32.761Z,-1.3
2019-02-16T00:17:32.813Z,-1.4
2019-02-16T00:22:32.907Z,-1.4
2019-02-16T00:27:32.839Z,-1.5
2019-02-16T00:32:32.809Z,-1.5
2019-02-16T00:37:32.817Z,-1.6
2019-02-16T00:42:32.819Z,-1.6
2019-02-16T00:47:33.040Z,-1.7
2019-02-16T00:52:32.912Z,-1.7
2019-02-16T00:57:32.921Z,-1.7
2019-02-16T01:02:32.806Z,-1.8
2019-02-16T01:07:32.838Z,-1.8
2019-02-16T01:12:32.837Z,-1.8
2019-02-16T01:17:32.792Z,-1.8
2019-02-16T01:22:32.932Z,-1.9
2019-02-16T01:27:32.986Z,-1.9
2019-02-16T01:32:32.858Z,-2
2019-02-16T01:37:33.008Z,-2
2019-02-16T01:42:33.108Z,-2.1
2019-02-16T01:47:32.875Z,-2.1
2019-02-16T01:52:33.027Z,-2.1
2019-02-16T01:57:32.955Z,-2.1
2019-02-16T02:02:33.028Z,-2.1
2019-02-16T02:07:33.059Z,-2.2
2019-02-16T02:12:32.981Z,-2.2
2019-02-16T02:17:32.966Z,-2.3
2019-02-16T02:22:33.063Z,-2.3
2019-02-16T02:27:32.873Z,-2.3
2019-02-16T02:32:33.022Z,-2.4
2019-02-16T02:37:32.871Z,-2.4
2019-02-16T02:42:32.886Z,-2.4
2019-02-16T02:47:32.885Z,-2.5
2019-02-16T02:52:33.064Z,-2.6
2019-02-16T02:57:33.101Z,-2.6
2019-02-16T03:02:33.022Z,-2.6
2019-02-16T03:07:33.068Z,-2.6
2019-02-16T03:12:32.901Z,-2.7
2019-02-16T03:17:33.024Z,-2.7
2019-02-16T03:22:33.056Z,-2.8
2019-02-16T03:27:32.873Z,-2.8
2019-02-16T03:32:32.908Z,-2.8
2019-02-16T03:37:32.919Z,-2.9
2019-02-16T03:42:33.104Z,-2.9
2019-02-16T03:47:33.030Z,-2.9
2019-02-16T03:52:33.061Z,-2.9
2019-02-16T03:57:33.106Z,-3
2019-02-16T04:02:33.074Z,-3
2019-02-16T04:07:32.914Z,-3
2019-02-16T04:12:33.094Z,-3.1
2019-02-16T04:17:32.936Z,-3.1
2019-02-16T04:22:33.061Z,-3.2
2019-02-16T04:27:32.912Z,-3.2
2019-02-16T04:32:33.153Z,-3.2
2019-02-16T04:37:33.069Z,-3.2
2019-02-16T04:42:33.041Z,-3.2
2019-02-16T04:47:32.924Z,-3.3
2019-02-16T04:52:35.036Z,-3.3
2019-02-16T04:57:32.952Z,-3.3
2019-02-16T05:02:32.939Z,-3.4
2019-02-16T05:07:32.952Z,-3.4
2019-02-16T05:12:33.094Z,-3.4
2019-02-16T05:17:32.948Z,-3.4
2019-02-16T05:22:33.178Z,-3.4
2019-02-16T05:27:33.097Z,-3.5
2019-02-16T05:32:32.917Z,-3.5
2019-02-16T05:37:32.967Z,-3.5
2019-02-16T05:42:32.957Z,-3.6
2019-02-16T05:47:33.136Z,-3.6
2019-02-16T05:52:32.974Z,-3.6
2019-02-16T05:57:33.222Z,-3.6
2019-02-16T06:02:33.004Z,-3.6
2019-02-16T06:07:32.984Z,-3.6
2019-02-16T06:12:32.990Z,-3.6
2019-02-16T06:17:32.998Z,-3.6
2019-02-16T06:22:33.003Z,-3.6
2019-02-16T06:27:33.000Z,-3.7
2019-02-16T06:32:32.996Z,-3.6
2019-02-16T06:37:32.985Z,-3.6
2019-02-16T06:42:33.006Z,-3.5
2019-02-16T06:47:33.005Z,-3.5
2019-02-16T06:52:33.011Z,-3.4
2019-02-16T06:57:32.988Z,-3.3
2019-02-16T07:02:33.027Z,-3.2
2019-02-16T07:07:33.003Z,-3.1
2019-02-16T07:12:33.007Z,-3
2019-02-16T07:17:33.031Z,-2.9
2019-02-16T07:22:33.053Z,-2.6
2019-02-16T07:27:33.026Z,-2.5
2019-02-16T07:32:33.028Z,-2.2
2019-02-16T07:37:33.041Z,-2
2019-02-16T07:42:33.059Z,-1.7
2019-02-16T07:47:33.018Z,-1.4
2019-02-16T07:52:33.057Z,-1.2
2019-02-16T07:57:33.071Z,-1
2019-02-16T08:02:33.065Z,-0.7
2019-02-16T08:07:33.058Z,-0.5
2019-02-16T08:12:33.056Z,-0.2
2019-02-16T08:17:33.054Z,0
2019-02-16T08:22:32.996Z,0.2
2019-02-16T08:27:33.064Z,0.5
2019-02-16T08:32:33.060Z,0.7
2019-02-16T08:37:33.054Z,1
2019-02-16T08:42:33.058Z,1.2
2019-02-16T08:47:33.079Z,1.4
2019-02-16T08:52:33.078Z,1.6
2019-02-16T08:57:33.211Z,1.9
2019-02-16T09:02:33.075Z,2.2
2019-02-16T09:07:33.305Z,2.5
2019-02-16T09:12:33.084Z,2.7
2019-02-16T09:17:33.251Z,3.1
2019-02-16T09:22:33.338Z,3.2
2019-02-16T09:27:33.085Z,3.3
2019-02-16T09:32:33.095Z,3.5
2019-02-16T09:37:33.096Z,3.7
2019-02-16T09:42:33.106Z,3.9
2019-02-16T09:47:33.109Z,4.1
2019-02-16T09:52:33.116Z,4.3
2019-02-16T09:57:33.088Z,4.4
2019-02-16T10:02:33.109Z,4.7
2019-02-16T10:07:33.114Z,5
2019-02-16T10:12:33.108Z,5.1
2019-02-16T10:17:33.129Z,5.2
2019-02-16T10:22:33.125Z,5.6
2019-02-16T10:27:33.139Z,5.8
2019-02-16T10:32:33.131Z,6.1
2019-02-16T10:37:33.131Z,6.3
2019-02-16T10:42:33.556Z,6.5
2019-02-16T10:47:33.146Z,6.7
2019-02-16T10:52:33.137Z,6.9
2019-02-16T10:57:33.151Z,7
2019-02-16T11:02:33.138Z,7.1
2019-02-16T11:07:33.151Z,7.4
2019-02-16T11:12:33.172Z,7.4
2019-02-16T11:17:33.128Z,7.6
2019-02-16T11:22:33.132Z,7.8
2019-02-16T11:27:33.154Z,7.9
2019-02-16T11:32:33.126Z,8
2019-02-16T11:37:33.171Z,8.1
2019-02-16T11:42:33.267Z,8.2
2019-02-16T11:47:33.161Z,8.2
2019-02-16T11:52:33.169Z,8.3
2019-02-16T11:57:33.169Z,8.3
2019-02-16T12:02:39.390Z,8.4
2019-02-16T12:07:33.170Z,8.3
2019-02-16T12:12:33.181Z,8.4
2019-02-16T12:17:33.178Z,8.3
2019-02-16T12:22:33.183Z,8.4
2019-02-16T12:27:33.331Z,8.4
2019-02-16T12:32:33.209Z,8.5
2019-02-16T12:37:33.149Z,8.6
2019-02-16T12:42:33.206Z,8.8
2019-02-16T12:47:33.176Z,8.9
2019-02-16T12:52:33.193Z,8.9
2019-02-16T12:57:33.341Z,9.1
2019-02-16T13:02:33.369Z,9.1
2019-02-16T13:07:33.160Z,9.2
2019-02-16T13:12:35.228Z,9.3
2019-02-16T13:17:33.227Z,9.4
2019-02-16T13:22:33.160Z,9.5
2019-02-16T13:27:33.261Z,9.5
2019-02-16T13:32:33.197Z,9.5
2019-02-16T13:37:33.193Z,9.5
2019-02-16T13:42:33.287Z,9.5
2019-02-16T13:47:33.232Z,9.5
2019-02-16T13:52:33.200Z,9.6
2019-02-16T13:57:33.218Z,9.6
2019-02-16T14:02:33.233Z,9.7
2019-02-16T14:07:33.227Z,9.6
2019-02-16T14:12:33.266Z,9.6
2019-02-16T14:17:33.250Z,9.6
2019-02-16T14:22:33.238Z,9.7
2019-02-16T14:27:33.299Z,9.7
2019-02-16T14:32:33.253Z,9.7
2019-02-16T14:37:33.246Z,9.7
2019-02-16T14:42:33.252Z,9.7
2019-02-16T14:47:33.283Z,9.7
2019-02-16T14:52:33.264Z,9.6
2019-02-16T14:57:33.303Z,9.5
2019-02-16T15:02:33.270Z,9.5
2019-02-16T15:07:33.417Z,9.4
2019-02-16T15:12:33.394Z,9.3
2019-02-16T15:17:33.277Z,9.3
2019-02-16T15:22:33.530Z,9.2
2019-02-16T15:27:33.452Z,9.1
2019-02-16T15:32:33.505Z,9
2019-02-16T15:37:33.282Z,8.9
2019-02-16T15:42:33.287Z,8.8
2019-02-16T15:47:33.498Z,8.7
2019-02-16T15:52:33.402Z,8.6
2019-02-16T15:57:33.332Z,8.5
2019-02-16T16:02:33.495Z,8.3
2019-02-16T16:07:33.297Z,8.1
2019-02-16T16:12:33.450Z,7.9
2019-02-16T16:17:33.511Z,7.7
2019-02-16T16:22:33.538Z,7.5
2019-02-16T16:27:33.457Z,7.4
2019-02-16T16:32:33.322Z,7.1
2019-02-16T16:37:33.537Z,6.8
2019-02-16T16:42:33.460Z,6.6
2019-02-16T16:47:33.315Z,6.3
2019-02-16T16:52:33.543Z,6.1
2019-02-16T16:57:33.389Z,5.9
2019-02-16T17:02:33.331Z,5.7
2019-02-16T17:07:33.331Z,5.5
2019-02-16T17:12:34.874Z,5.3
2019-02-16T17:17:33.387Z,5
2019-02-16T17:22:33.346Z,4.9
2019-02-16T17:27:33.362Z,4.7
2019-02-16T17:32:33.376Z,4.4
2019-02-16T17:37:33.368Z,4.3
2019-02-16T17:42:33.341Z,4.1
2019-02-16T17:47:33.336Z,3.9
2019-02-16T17:52:33.352Z,3.8
2019-02-16T17:57:33.369Z,3.6
2019-02-16T18:02:33.366Z,3.5
2019-02-16T18:07:33.389Z,3.3
2019-02-16T18:12:33.307Z,3.2
2019-02-16T18:17:33.449Z,3
2019-02-16T18:22:33.403Z,2.9
2019-02-16T18:27:33.403Z,2.8
2019-02-16T18:32:33.389Z,2.6
2019-02-16T18:37:33.794Z,2.5
2019-02-16T18:42:33.391Z,2.4
2019-02-16T18:47:33.402Z,2.3
2019-02-16T18:52:33.495Z,2.2
2019-02-16T18:57:33.376Z,2.1
2019-02-16T19:02:33.425Z,2
2019-02-16T19:07:33.537Z,1.8
2019-02-16T19:12:33.396Z,1.8
2019-02-16T19:17:33.425Z,1.7
2019-02-16T19:22:33.419Z,1.6
2019-02-16T19:27:34.340Z,1.5
2019-02-16T19:32:33.399Z,1.4
2019-02-16T19:37:33.419Z,1.3
2019-02-16T19:42:33.404Z,1.3
2019-02-16T19:47:33.577Z,1.2
2019-02-16T19:52:33.420Z,1.1
2019-02-16T19:57:33.378Z,1
2019-02-16T20:02:33.432Z,0.9
2019-02-16T20:07:33.431Z,0.9
2019-02-16T20:12:33.605Z,0.8
2019-02-16T20:17:33.437Z,0.7
2019-02-16T20:22:33.687Z,0.6
2019-02-16T20:27:37.227Z,0.6
2019-02-16T20:32:33.722Z,0.5
2019-02-16T20:37:33.744Z,0.4
2019-02-16T20:42:33.485Z,0.4
2019-02-16T20:47:33.734Z,0.3
2019-02-16T20:52:33.750Z,0.3
2019-02-16T20:57:33.573Z,0.2
2019-02-16T21:02:33.469Z,0.2
2019-02-16T21:07:33.775Z,0.1
2019-02-16T21:12:33.487Z,0.1
2019-02-16T21:17:33.468Z,0
2019-02-16T21:22:33.472Z,0
2019-02-16T21:27:33.716Z,0
2019-02-16T21:32:33.504Z,0
2019-02-16T21:37:33.783Z,0
2019-02-16T21:42:34.017Z,0
2019-02-16T21:47:33.477Z,-0.1
2019-02-16T21:52:33.556Z,-0.1
2019-02-16T21:57:33.567Z,-0.2
2019-02-16T22:02:33.488Z,-0.3
2019-02-16T22:07:33.495Z,-0.3
2019-02-16T22:12:33.502Z,-0.4
2019-02-16T22:17:33.497Z,-0.4
2019-02-16T22:22:33.518Z,-0.5
2019-02-16T22:27:34.374Z,-0.5
2019-02-16T22:32:33.507Z,-0.6
2019-02-16T22:37:33.492Z,-0.6
2019-02-16T22:42:34.137Z,-0.6
2019-02-16T22:47:33.511Z,-0.7
2019-02-16T22:52:33.522Z,-0.7
2019-02-16T22:57:33.575Z,-0.7
2019-02-16T23:02:33.521Z,-0.7
2019-02-16T23:07:33.532Z,-0.8
2019-02-16T23:12:33.527Z,-0.9
2019-02-16T23:17:33.524Z,-0.9
2019-02-16T23:22:33.532Z,-1
2019-02-16T23:27:33.538Z,-1.1
2019-02-16T23:32:33.508Z,-1.1
2019-02-16T23:37:33.545Z,-1.1
2019-02-16T23:42:33.522Z,-1.2
2019-02-16T23:47:33.535Z,-1.2
2019-02-16T23:52:33.555Z,-1.3
2019-02-16T23:57:33.798Z,-1.3
